トルトラ島 の空港の天気 - METARとTAF

テラス・B・レットサム国際空港 ( TUPJ / EIS ) - イギリス領ヴァージン諸島 トルトラ島
飛行場実況気象(Metar)
観測時間01/22 21:00 AST (01/23 01:00 UTC)
風向・風速東 3m/s
視程10km以上
天気現象
少しの雲 雲底高度 550m
気温24℃
湿度89%
気圧1018hPa
METARTUPJ 230100Z 09005KT 10SM FEW018 24/22 A3005 RMK Q1017 VIS16KM
過去の天気等 Google飛行場航空写真 Wunderground天気予報

過去48時間のMETAR

飛行場予報(TAF)
発表時間: 1/22 19:00 AST (1/22 23:00 UTC)
予報対象時間: 22日20時 AST ~ 23日20時 AST
風向・風速南東 3m/s
視程10km以上
全天の4割程度の雲 雲底高度 580m
TAF TUPJ 222300Z 2300/2324 13005KT 9999 SCT019